Bradford, Kentucky
Current Conditions -  °F | °C
As of 5:55 AM on Wednesday 26 Nov 2014 (Local Time) from KFGX Reporting Station
Broken Clouds Broken Clouds  
Wind Chill: 30°   Ceiling: 12000
Heat Index: 30°   Visibility: 7mi
Dew Point: 28°   Wind: 3mph
Humidity: 92%   Direction: 40°NE
Pressure: 30.08"   Gusts: NA
Location:  38.7475°N, 84.1516°W
Report Text: KFGX 261055Z AUTO 04003KT 7SM BKN120 M01/M02 A3008 RMK AO2 T10101022
Loading
Personal Weather Stations






























Interactive Weather Map New forecast layout! Learn more

10-Day Weather Forecast

Advertisements
Track Severe Weather on mobile